DURKA TNCC-TNCA
Flight info
| Callsign | DURKA |
|---|---|
| Flight time | 0h 32m |
| Altitude | 7000 |
| Route | ARUB1K ELUMO DCT DAVLA DCT BOMDA |
| Aircraft | C208/L-SDFGR/C |
Departure
| Time | 2026-05-07 22:38 |
|---|---|
| Airport | Hato International Airport (TNCC) |
Arrival
| Time | 2026-05-07 23:10 |
|---|---|
| Airport | Queen Beatrix International Airport (TNCA) |
| Time | Latitude | Longitude | Altitude | Speed | Heading |
|---|---|---|---|---|---|
| 2026-05-07 22:21 | 12.18699 | -68.96235 | 42 ft | 0 kts | 192° |
| 2026-05-07 22:31 | 12.18690 | -68.96247 | 42 ft | 4 kts | 280° |
| 2026-05-07 22:32 | 12.18733 | -68.96262 | 42 ft | 0 kts | 358° |
| 2026-05-07 22:32 | 12.18749 | -68.96261 | 41 ft | 2 kts | 6° |
| 2026-05-07 22:32 | 12.18764 | -68.96266 | 41 ft | 2 kts | 319° |
| 2026-05-07 22:32 | 12.18774 | -68.96285 | 41 ft | 3 kts | 288° |
| 2026-05-07 22:33 | 12.18783 | -68.96314 | 41 ft | 4 kts | 290° |
| 2026-05-07 22:33 | 12.18793 | -68.96350 | 42 ft | 5 kts | 281° |
| 2026-05-07 22:33 | 12.18801 | -68.96391 | 42 ft | 6 kts | 281° |
| 2026-05-07 22:33 | 12.18811 | -68.96442 | 42 ft | 9 kts | 280° |
| 2026-05-07 22:34 | 12.18830 | -68.96530 | 41 ft | 16 kts | 285° |
| 2026-05-07 22:34 | 12.18857 | -68.96662 | 41 ft | 21 kts | 279° |
| 2026-05-07 22:34 | 12.18893 | -68.96827 | 41 ft | 25 kts | 283° |
| 2026-05-07 22:34 | 12.18933 | -68.97018 | 41 ft | 28 kts | 283° |
| 2026-05-07 22:35 | 12.18978 | -68.97225 | 40 ft | 30 kts | 278° |
| 2026-05-07 22:35 | 12.19024 | -68.97445 | 40 ft | 32 kts | 281° |
| 2026-05-07 22:35 | 12.19097 | -68.97618 | 39 ft | 22 kts | 351° |
| 2026-05-07 22:35 | 12.19203 | -68.97559 | 39 ft | 14 kts | 68° |
| 2026-05-07 22:36 | 12.19208 | -68.97475 | 39 ft | 10 kts | 101° |
| 2026-05-07 22:36 | 12.19183 | -68.97331 | 40 ft | 39 kts | 99° |
| 2026-05-07 22:36 | 12.19102 | -68.96945 | 40 ft | 69 kts | 102° |
| 2026-05-07 22:36 | 12.18989 | -68.96398 | 43 ft | 86 kts | 99° |
| 2026-05-07 22:37 | 12.18862 | -68.95809 | 120 ft | 83 kts | 100° |
| 2026-05-07 22:37 | 12.18786 | -68.95254 | 212 ft | 81 kts | 106° |
| 2026-05-07 22:37 | 12.18600 | -68.94662 | 196 ft | 89 kts | 103° |
| 2026-05-07 22:37 | 12.18501 | -68.94109 | 362 ft | 74 kts | 95° |
| 2026-05-07 22:38 | 12.18267 | -68.93592 | 337 ft | 88 kts | 125° |
| 2026-05-07 22:38 | 12.17729 | -68.93285 | 588 ft | 90 kts | 160° |
| 2026-05-07 22:38 | 12.17030 | -68.93310 | 720 ft | 112 kts | 181° |
| 2026-05-07 22:38 | 12.16274 | -68.93665 | 892 ft | 130 kts | 207° |
| 2026-05-07 22:39 | 12.15583 | -68.94296 | 1095 ft | 136 kts | 220° |
| 2026-05-07 22:39 | 12.15245 | -68.95257 | 1192 ft | 151 kts | 276° |
| 2026-05-07 22:39 | 12.15524 | -68.96256 | 1422 ft | 147 kts | 297° |
| 2026-05-07 22:40 | 12.15771 | -68.96804 | 1505 ft | 150 kts | 303° |
| 2026-05-07 22:40 | 12.16163 | -68.97787 | 1732 ft | 149 kts | 295° |
| 2026-05-07 22:40 | 12.16545 | -68.98857 | 1698 ft | 170 kts | 297° |
| 2026-05-07 22:40 | 12.16985 | -68.99967 | 1871 ft | 163 kts | 309° |
| 2026-05-07 22:41 | 12.17576 | -69.00942 | 2079 ft | 159 kts | 309° |
| 2026-05-07 22:41 | 12.18159 | -69.01888 | 2275 ft | 155 kts | 309° |
| 2026-05-07 22:41 | 12.18740 | -69.02809 | 2494 ft | 152 kts | 310° |
| 2026-05-07 22:41 | 12.19313 | -69.03715 | 2709 ft | 150 kts | 309° |
| 2026-05-07 22:42 | 12.19881 | -69.04605 | 2920 ft | 148 kts | 309° |
| 2026-05-07 22:42 | 12.20448 | -69.05482 | 3135 ft | 147 kts | 308° |
| 2026-05-07 22:42 | 12.20913 | -69.06420 | 3351 ft | 147 kts | 300° |
| 2026-05-07 22:42 | 12.21347 | -69.07358 | 3565 ft | 145 kts | 299° |
| 2026-05-07 22:43 | 12.21773 | -69.08287 | 3784 ft | 144 kts | 298° |
| 2026-05-07 22:43 | 12.22061 | -69.08899 | 3930 ft | 143 kts | 299° |
| 2026-05-07 22:43 | 12.22488 | -69.09806 | 4146 ft | 141 kts | 298° |
| 2026-05-07 22:43 | 12.22903 | -69.10707 | 4368 ft | 139 kts | 297° |
| 2026-05-07 22:44 | 12.23293 | -69.11606 | 4583 ft | 137 kts | 287° |
| 2026-05-07 22:44 | 12.23525 | -69.12546 | 4799 ft | 135 kts | 282° |
| 2026-05-07 22:44 | 12.23734 | -69.13475 | 5016 ft | 133 kts | 282° |
| 2026-05-07 22:44 | 12.23942 | -69.14392 | 5230 ft | 131 kts | 282° |
| 2026-05-07 22:45 | 12.24148 | -69.15292 | 5442 ft | 129 kts | 282° |
| 2026-05-07 22:45 | 12.24357 | -69.16182 | 5623 ft | 130 kts | 281° |
| 2026-05-07 22:45 | 12.24570 | -69.17069 | 5782 ft | 125 kts | 281° |
| 2026-05-07 22:45 | 12.24790 | -69.17953 | 5964 ft | 131 kts | 282° |
| 2026-05-07 22:46 | 12.25027 | -69.18880 | 6140 ft | 138 kts | 282° |
| 2026-05-07 22:46 | 12.25273 | -69.19847 | 6311 ft | 143 kts | 282° |
| 2026-05-07 22:46 | 12.25527 | -69.20852 | 6489 ft | 148 kts | 282° |
| 2026-05-07 22:46 | 12.25793 | -69.21881 | 6661 ft | 151 kts | 283° |
| 2026-05-07 22:47 | 12.25968 | -69.22948 | 6812 ft | 154 kts | 263° |
| 2026-05-07 22:47 | 12.25545 | -69.23953 | 6855 ft | 155 kts | 225° |
| 2026-05-07 22:47 | 12.24777 | -69.24580 | 7223 ft | 134 kts | 208° |
| 2026-05-07 22:47 | 12.24078 | -69.25179 | 7510 ft | 132 kts | 231° |
| 2026-05-07 22:48 | 12.23863 | -69.25996 | 7718 ft | 136 kts | 271° |
| 2026-05-07 22:48 | 12.24008 | -69.26949 | 7952 ft | 135 kts | 281° |
| 2026-05-07 22:48 | 12.24211 | -69.27887 | 8165 ft | 135 kts | 282° |
| 2026-05-07 22:48 | 12.24422 | -69.28826 | 8371 ft | 136 kts | 282° |
| 2026-05-07 22:49 | 12.24633 | -69.29766 | 8574 ft | 136 kts | 282° |
| 2026-05-07 22:49 | 12.24854 | -69.30756 | 8600 ft | 153 kts | 282° |
| 2026-05-07 22:49 | 12.25078 | -69.31781 | 8580 ft | 166 kts | 282° |
| 2026-05-07 22:49 | 12.25334 | -69.32965 | 8574 ft | 174 kts | 282° |
| 2026-05-07 22:50 | 12.25601 | -69.34192 | 8571 ft | 179 kts | 282° |
| 2026-05-07 22:50 | 12.25875 | -69.35448 | 8570 ft | 182 kts | 282° |
| 2026-05-07 22:50 | 12.26151 | -69.36718 | 8570 ft | 184 kts | 282° |
| 2026-05-07 22:50 | 12.26439 | -69.37995 | 8571 ft | 185 kts | 287° |
| 2026-05-07 22:51 | 12.27009 | -69.39171 | 8575 ft | 185 kts | 300° |
| 2026-05-07 22:51 | 12.27619 | -69.40331 | 8570 ft | 185 kts | 300° |
| 2026-05-07 22:51 | 12.28217 | -69.41500 | 8566 ft | 185 kts | 298° |
| 2026-05-07 22:51 | 12.28793 | -69.42681 | 8569 ft | 185 kts | 297° |
| 2026-05-07 22:52 | 12.29355 | -69.43872 | 8569 ft | 185 kts | 296° |
| 2026-05-07 22:52 | 12.29906 | -69.45078 | 8567 ft | 185 kts | 296° |
| 2026-05-07 22:52 | 12.30447 | -69.46286 | 8564 ft | 185 kts | 295° |
| 2026-05-07 22:52 | 12.30975 | -69.47488 | 8563 ft | 185 kts | 295° |
| 2026-05-07 22:53 | 12.31500 | -69.48694 | 8564 ft | 186 kts | 295° |
| 2026-05-07 22:53 | 12.32020 | -69.49904 | 8564 ft | 186 kts | 295° |
| 2026-05-07 22:53 | 12.32541 | -69.51118 | 8567 ft | 185 kts | 294° |
| 2026-05-07 22:53 | 12.33055 | -69.52329 | 8568 ft | 185 kts | 295° |
| 2026-05-07 22:54 | 12.33569 | -69.53542 | 8570 ft | 186 kts | 294° |
| 2026-05-07 22:54 | 12.34083 | -69.54759 | 8570 ft | 186 kts | 294° |
| 2026-05-07 22:54 | 12.34598 | -69.55977 | 8526 ft | 188 kts | 294° |
| 2026-05-07 22:54 | 12.35125 | -69.57229 | 8363 ft | 196 kts | 294° |
| 2026-05-07 22:55 | 12.35672 | -69.58526 | 8130 ft | 198 kts | 294° |
| 2026-05-07 22:55 | 12.36010 | -69.59323 | 7984 ft | 197 kts | 294° |
| 2026-05-07 22:55 | 12.36551 | -69.60613 | 7745 ft | 195 kts | 294° |
| 2026-05-07 22:55 | 12.37087 | -69.61890 | 7507 ft | 194 kts | 294° |
| 2026-05-07 22:56 | 12.37620 | -69.63165 | 7271 ft | 193 kts | 294° |
| 2026-05-07 22:56 | 12.38149 | -69.64430 | 7036 ft | 193 kts | 294° |
| 2026-05-07 22:56 | 12.38677 | -69.65694 | 6798 ft | 193 kts | 293° |
| 2026-05-07 22:56 | 12.39199 | -69.66960 | 6558 ft | 192 kts | 293° |
| 2026-05-07 22:57 | 12.39719 | -69.68219 | 6319 ft | 192 kts | 293° |
| 2026-05-07 22:57 | 12.40240 | -69.69477 | 6075 ft | 192 kts | 293° |
| 2026-05-07 22:57 | 12.40768 | -69.70744 | 5832 ft | 192 kts | 294° |
| 2026-05-07 22:57 | 12.41290 | -69.72008 | 5590 ft | 193 kts | 294° |
| 2026-05-07 22:58 | 12.41816 | -69.73271 | 5347 ft | 193 kts | 294° |
| 2026-05-07 22:58 | 12.42345 | -69.74541 | 5104 ft | 194 kts | 295° |
| 2026-05-07 22:58 | 12.42877 | -69.75816 | 4859 ft | 195 kts | 295° |
| 2026-05-07 22:58 | 12.43410 | -69.77097 | 4616 ft | 196 kts | 295° |
| 2026-05-07 22:59 | 12.43945 | -69.78378 | 4369 ft | 196 kts | 296° |
| 2026-05-07 22:59 | 12.44481 | -69.79665 | 4121 ft | 197 kts | 296° |
| 2026-05-07 22:59 | 12.45020 | -69.80950 | 3882 ft | 197 kts | 296° |
| 2026-05-07 22:59 | 12.45561 | -69.82243 | 3643 ft | 198 kts | 297° |
| 2026-05-07 23:00 | 12.46101 | -69.83539 | 3404 ft | 199 kts | 297° |
| 2026-05-07 23:00 | 12.46642 | -69.84823 | 3154 ft | 194 kts | 297° |
| 2026-05-07 23:00 | 12.47164 | -69.86085 | 2907 ft | 191 kts | 297° |
| 2026-05-07 23:00 | 12.47801 | -69.87248 | 2665 ft | 181 kts | 325° |
| 2026-05-07 23:01 | 12.48858 | -69.87654 | 2523 ft | 150 kts | 15° |
| 2026-05-07 23:01 | 12.49680 | -69.87248 | 2506 ft | 121 kts | 61° |
| 2026-05-07 23:01 | 12.49781 | -69.86469 | 2504 ft | 114 kts | 108° |
| 2026-05-07 23:01 | 12.49167 | -69.85934 | 2505 ft | 128 kts | 153° |
| 2026-05-07 23:02 | 12.48225 | -69.86067 | 2500 ft | 149 kts | 200° |
| 2026-05-07 23:02 | 12.47520 | -69.86895 | 2499 ft | 161 kts | 246° |
| 2026-05-07 23:02 | 12.47453 | -69.88026 | 2497 ft | 159 kts | 292° |
| 2026-05-07 23:02 | 12.48006 | -69.88957 | 2498 ft | 151 kts | 319° |
| 2026-05-07 23:03 | 12.48695 | -69.89770 | 2492 ft | 150 kts | 322° |
| 2026-05-07 23:03 | 12.49398 | -69.90566 | 2491 ft | 151 kts | 321° |
| 2026-05-07 23:03 | 12.49893 | -69.91540 | 2495 ft | 158 kts | 294° |
| 2026-05-07 23:03 | 12.50209 | -69.92625 | 2494 ft | 159 kts | 290° |
| 2026-05-07 23:04 | 12.50503 | -69.93727 | 2495 ft | 160 kts | 289° |
| 2026-05-07 23:04 | 12.50801 | -69.94828 | 2481 ft | 161 kts | 291° |
| 2026-05-07 23:04 | 12.51113 | -69.95924 | 2486 ft | 159 kts | 290° |
| 2026-05-07 23:04 | 12.51431 | -69.97009 | 2485 ft | 159 kts | 292° |
| 2026-05-07 23:05 | 12.51776 | -69.98095 | 2431 ft | 163 kts | 294° |
| 2026-05-07 23:05 | 12.52153 | -69.99211 | 2338 ft | 167 kts | 298° |
| 2026-05-07 23:05 | 12.52627 | -70.00305 | 2249 ft | 169 kts | 301° |
| 2026-05-07 23:05 | 12.53115 | -70.01413 | 2161 ft | 171 kts | 301° |
| 2026-05-07 23:06 | 12.53613 | -70.02525 | 2064 ft | 172 kts | 301° |
| 2026-05-07 23:06 | 12.54112 | -70.03631 | 1966 ft | 171 kts | 302° |
| 2026-05-07 23:06 | 12.54602 | -70.04739 | 1872 ft | 170 kts | 302° |
| 2026-05-07 23:06 | 12.55028 | -70.05878 | 1765 ft | 176 kts | 281° |
| 2026-05-07 23:07 | 12.54899 | -70.07119 | 1677 ft | 176 kts | 246° |
| 2026-05-07 23:07 | 12.54159 | -70.08042 | 1586 ft | 163 kts | 201° |
| 2026-05-07 23:07 | 12.53153 | -70.08275 | 1497 ft | 137 kts | 154° |
| 2026-05-07 23:07 | 12.52397 | -70.07830 | 1289 ft | 132 kts | 130° |
| 2026-05-07 23:08 | 12.51697 | -70.07162 | 995 ft | 133 kts | 124° |
| 2026-05-07 23:08 | 12.51211 | -70.06442 | 933 ft | 111 kts | 104° |
| 2026-05-07 23:08 | 12.51048 | -70.05747 | 889 ft | 88 kts | 96° |
| 2026-05-07 23:08 | 12.50926 | -70.05221 | 869 ft | 70 kts | 98° |
| 2026-05-07 23:09 | 12.50844 | -70.04712 | 729 ft | 74 kts | 95° |
| 2026-05-07 23:09 | 12.50741 | -70.04185 | 526 ft | 76 kts | 97° |
| 2026-05-07 23:09 | 12.50627 | -70.03683 | 345 ft | 70 kts | 99° |
| 2026-05-07 23:09 | 12.50522 | -70.03207 | 203 ft | 73 kts | 98° |
| 2026-05-07 23:10 | 12.50407 | -70.02680 | 75 ft | 75 kts | 97° |
| 2026-05-07 23:10 | 12.50295 | -70.02189 | 30 ft | 69 kts | 98° |
| 2026-05-07 23:10 | 12.50194 | -70.01742 | 40 ft | 46 kts | 107° |
| 2026-05-07 23:10 | 12.50136 | -70.01492 | 48 ft | 25 kts | 104° |
| 2026-05-07 23:11 | 12.50206 | -70.01382 | 51 ft | 22 kts | 13° |
| 2026-05-07 23:11 | 12.50343 | -70.01395 | 52 ft | 23 kts | 30° |
| 2026-05-07 23:11 | 12.50368 | -70.01309 | 55 ft | 9 kts | 75° |
| 2026-05-07 23:11 | 12.50402 | -70.01292 | 55 ft | 3 kts | 15° |
| 2026-05-07 23:12 | 12.50417 | -70.01287 | 55 ft | 0 kts | 13° |